EST,Max TemperatureF,Mean TemperatureF,Min TemperatureF,Max Dew PointF,MeanDew PointF,Min DewpointF,Max Humidity, Mean Humidity, Min Humidity, Max Sea Level PressureIn, Mean Sea Level PressureIn, Min Sea Level PressureIn, Max VisibilityMiles, Mean VisibilityMiles, Min VisibilityMiles, Max Wind SpeedMPH, Mean Wind SpeedMPH, Max Gust SpeedMPH,PrecipitationIn, CloudCover, Events, WindDirDegrees
2012-11-1,51,40,30,37,30,23,93,71,38,29.86,29.81,29.78,10,10,10,18,8,26,0.00,4,,282
2012-11-2,44,38,32,34,31,28,93,75,57,30.12,30.00,29.85,10,10,10,15,6,20,0.00,5,,322
2012-11-3,42,35,28,32,30,27,100,85,61,30.21,30.17,30.12,10,9,5,8,2,,0.00,2,Rain,33
2012-11-4,42,34,26,30,29,27,100,83,61,30.22,30.19,30.16,10,10,7,10,3,,0.00,6,,356
2012-11-5,42,32,21,30,26,21,100,79,53,30.21,30.17,30.13,10,8,0,8,2,,0.00,0,Fog,101
2012-11-6,44,34,23,32,29,21,93,75,57,30.13,30.02,29.93,10,9,4,9,4,,0.00,3,Rain,134
2012-11-7,48,40,30,34,31,28,93,75,53,30.15,30.03,29.93,10,9,5,10,5,,0.00,3,Rain,71
2012-11-8,46,36,26,36,31,25,100,81,62,30.23,30.18,30.15,10,6,1,9,2,,0.00,4,,240
2012-11-9,59,44,30,41,36,28,100,71,48,30.18,30.11,30.04,10,7,2,10,2,17,0.00,3,Rain,175
2012-11-10,69,60,50,50,43,39,71,59,49,30.10,30.05,30.00,10,10,10,12,6,20,0.00,4,,185
2012-11-11,68,60,51,48,44,41,72,58,45,30.10,30.01,29.91,10,10,10,17,9,29,0.00,2,Rain,183
2012-11-12,60,46,32,50,31,21,100,79,52,30.33,30.12,29.92,10,9,2,20,12,29,0.29,6,Rain-Snow,260
2012-11-13,37,32,26,27,22,19,86,68,56,30.52,30.45,30.33,10,10,7,14,8,22,0.00,3,,288
2012-11-14,41,32,23,28,25,21,93,78,57,30.56,30.50,30.41,10,10,7,8,2,,0.00,0,,116
2012-11-15,44,34,23,30,27,21,100,83,53,30.42,30.38,30.33,10,6,2,5,1,,0.00,0,,128
2012-11-16,50,36,23,32,28,21,100,77,43,30.50,30.45,30.38,10,6,2,4,0,,0.00,0,,350
2012-11-17,53,38,23,32,29,23,100,78,44,30.58,30.52,30.50,10,7,2,7,2,,0.03,0,,108
2012-11-18,55,44,32,34,31,28,100,73,38,30.50,30.44,30.38,10,8,4,8,3,,0.00,0,,114
2012-11-19,55,44,32,36,32,28,87,65,41,30.38,30.28,30.16,10,10,10,5,2,,0.00,1,,139
2012-11-20,53,47,39,43,39,34,93,70,54,30.17,30.12,30.08,10,9,3,5,1,,0.00,7,,256
2012-11-21,53,42,32,45,38,32,100,94,71,30.27,30.21,30.17,5,2,0,5,0,,0.00,5,Fog-Snow,245
2012-11-22,60,48,37,45,41,37,100,73,51,30.18,30.04,29.85,10,7,1,13,5,25,0.00,2,Rain,199
2012-11-23,51,40,30,50,28,19,94,75,60,30.14,29.99,29.83,10,10,5,28,16,36,0.04,7,Rain-Snow,265
2012-11-24,30,29,28,23,21,19,75,71,64,30.20,30.15,30.06,10,10,10,15,10,18,0.00,8,Snow,258
2012-11-25,42,35,28,28,25,21,87,71,53,30.07,29.94,29.87,10,10,10,13,6,18,0.00,3,,237
2012-11-26,37,30,24,30,25,21,93,77,60,30.31,30.18,30.03,10,9,5,10,2,,0.00,5,,322
2012-11-27,35,30,26,25,20,16,75,63,52,30.39,30.32,30.27,10,10,10,10,4,,0.00,4,,294
2012-11-28,41,34,26,27,21,18,80,65,45,30.37,30.32,30.26,10,10,10,15,5,20,0.00,2,,256
2012-11-29,46,38,30,32,27,23,75,65,50,30.33,30.25,30.16,10,10,10,9,4,,0.00,2,,197
2012-11-30,51,42,33,34,31,28,87,68,47,30.17,30.14,30.08,10,10,10,7,3,,0.00,4,,169